AIRU1 RJFF-RJTT
Flight info
| Callsign | AIRU1 |
|---|---|
| Flight time | 1h 19m |
| Altitude | 41000 |
| Route | YOKAT6 IPRIR Y231 OMKAT Y235 FLUTE Y23 ARTIC Y71 XAC XAC2N |
| Aircraft | B736/M-SDE/L |
Departure
| Time | 2026-05-07 14:31 |
|---|---|
| Airport | Fukuoka Airport (RJFF) |
Arrival
| Time | 2026-05-07 15:50 |
|---|---|
| Airport | Tokyo Haneda International Airport (RJTT) |
| Time | Latitude | Longitude | Altitude | Speed | Heading |
|---|---|---|---|---|---|
| 2026-05-07 13:21 | 33.57775 | 130.45198 | 34 ft | 0 kts | 237° |
| 2026-05-07 14:00 | 33.57780 | 130.45207 | 34 ft | 2 kts | 237° |
| 2026-05-07 14:00 | 33.57790 | 130.45220 | 32 ft | 3 kts | 188° |
| 2026-05-07 14:00 | 33.57809 | 130.45221 | 33 ft | 3 kts | 164° |
| 2026-05-07 14:01 | 33.57818 | 130.45217 | 34 ft | 0 kts | 156° |
| 2026-05-07 14:06 | 33.57814 | 130.45219 | 33 ft | 2 kts | 155° |
| 2026-05-07 14:06 | 33.57803 | 130.45233 | 33 ft | 3 kts | 106° |
| 2026-05-07 14:06 | 33.57795 | 130.45269 | 32 ft | 6 kts | 112° |
| 2026-05-07 14:06 | 33.57771 | 130.45314 | 33 ft | 8 kts | 133° |
| 2026-05-07 14:07 | 33.57728 | 130.45364 | 33 ft | 9 kts | 140° |
| 2026-05-07 14:07 | 33.57666 | 130.45402 | 36 ft | 11 kts | 147° |
| 2026-05-07 14:07 | 33.57599 | 130.45455 | 36 ft | 13 kts | 147° |
| 2026-05-07 14:07 | 33.57521 | 130.45515 | 35 ft | 14 kts | 148° |
| 2026-05-07 14:08 | 33.57476 | 130.45572 | 37 ft | 5 kts | 122° |
| 2026-05-07 14:08 | 33.57459 | 130.45606 | 37 ft | 5 kts | 115° |
| 2026-05-07 14:08 | 33.57447 | 130.45643 | 38 ft | 5 kts | 105° |
| 2026-05-07 14:08 | 33.57448 | 130.45681 | 38 ft | 5 kts | 79° |
| 2026-05-07 14:09 | 33.57461 | 130.45715 | 38 ft | 4 kts | 61° |
| 2026-05-07 14:09 | 33.57461 | 130.45717 | 38 ft | 0 kts | 61° |
| 2026-05-07 14:13 | 33.57466 | 130.45727 | 57 ft | 0 kts | 60° |
| 2026-05-07 14:13 | 33.57467 | 130.45729 | 58 ft | 0 kts | 60° |
| 2026-05-07 14:13 | 33.57484 | 130.45759 | 35 ft | 10 kts | 52° |
| 2026-05-07 14:14 | 33.57553 | 130.45775 | 39 ft | 13 kts | 338° |
| 2026-05-07 14:14 | 33.57579 | 130.45758 | 39 ft | 0 kts | 330° |
| 2026-05-07 14:14 | 33.57585 | 130.45756 | 38 ft | 8 kts | 344° |
| 2026-05-07 14:14 | 33.57615 | 130.45829 | 39 ft | 21 kts | 82° |
| 2026-05-07 14:15 | 33.57631 | 130.45879 | 38 ft | 0 kts | 56° |
| 2026-05-07 14:16 | 33.57636 | 130.45887 | 38 ft | 2 kts | 50° |
| 2026-05-07 14:16 | 33.57654 | 130.45908 | 37 ft | 5 kts | 48° |
| 2026-05-07 14:16 | 33.57645 | 130.45946 | 37 ft | 6 kts | 153° |
| 2026-05-07 14:16 | 33.57604 | 130.45959 | 38 ft | 7 kts | 181° |
| 2026-05-07 14:17 | 33.57563 | 130.45933 | 37 ft | 7 kts | 229° |
| 2026-05-07 14:17 | 33.57550 | 130.45908 | 38 ft | 0 kts | 240° |
| 2026-05-07 14:30 | 33.57547 | 130.45903 | 38 ft | 5 kts | 240° |
| 2026-05-07 14:30 | 33.57541 | 130.45792 | 39 ft | 23 kts | 307° |
| 2026-05-07 14:30 | 33.57747 | 130.45645 | 38 ft | 63 kts | 330° |
| 2026-05-07 14:31 | 33.58421 | 130.45187 | 34 ft | 155 kts | 331° |
| 2026-05-07 14:31 | 33.59487 | 130.44481 | 477 ft | 199 kts | 331° |
| 2026-05-07 14:31 | 33.60757 | 130.43612 | 1437 ft | 207 kts | 328° |
| 2026-05-07 14:31 | 33.61923 | 130.42816 | 3037 ft | 182 kts | 325° |
| 2026-05-07 14:32 | 33.62997 | 130.42080 | 4028 ft | 180 kts | 324° |
| 2026-05-07 14:32 | 33.64110 | 130.41313 | 4752 ft | 187 kts | 324° |
| 2026-05-07 14:32 | 33.65346 | 130.40800 | 5510 ft | 196 kts | 359° |
| 2026-05-07 14:32 | 33.66599 | 130.41440 | 6233 ft | 205 kts | 47° |
| 2026-05-07 14:33 | 33.67355 | 130.42891 | 6923 ft | 207 kts | 62° |
| 2026-05-07 14:33 | 33.68040 | 130.44416 | 7578 ft | 213 kts | 60° |
| 2026-05-07 14:33 | 33.68771 | 130.46011 | 8266 ft | 217 kts | 59° |
| 2026-05-07 14:33 | 33.69394 | 130.47641 | 8934 ft | 221 kts | 80° |
| 2026-05-07 14:34 | 33.69277 | 130.49453 | 9521 ft | 220 kts | 119° |
| 2026-05-07 14:34 | 33.68338 | 130.50830 | 9978 ft | 212 kts | 151° |
| 2026-05-07 14:34 | 33.67091 | 130.51759 | 9958 ft | 208 kts | 158° |
| 2026-05-07 14:34 | 33.65830 | 130.52598 | 9962 ft | 208 kts | 159° |
| 2026-05-07 14:35 | 33.64571 | 130.53435 | 9984 ft | 207 kts | 159° |
| 2026-05-07 14:35 | 33.63265 | 130.54185 | 9997 ft | 213 kts | 165° |
| 2026-05-07 14:35 | 33.61792 | 130.54905 | 10023 ft | 246 kts | 165° |
| 2026-05-07 14:35 | 33.60096 | 130.55725 | 10029 ft | 279 kts | 163° |
| 2026-05-07 14:36 | 33.58202 | 130.56654 | 10027 ft | 307 kts | 162° |
| 2026-05-07 14:36 | 33.56247 | 130.57632 | 9994 ft | 300 kts | 162° |
| 2026-05-07 14:36 | 33.54373 | 130.58586 | 10149 ft | 285 kts | 162° |
| 2026-05-07 14:36 | 33.52593 | 130.59490 | 10278 ft | 273 kts | 163° |
| 2026-05-07 14:37 | 33.50848 | 130.60368 | 10282 ft | 272 kts | 163° |
| 2026-05-07 14:37 | 33.47077 | 130.62247 | 10623 ft | 317 kts | 162° |
| 2026-05-07 14:37 | 33.44952 | 130.63320 | 10828 ft | 345 kts | 159° |
| 2026-05-07 14:38 | 33.42936 | 130.65106 | 11060 ft | 379 kts | 135° |
| 2026-05-07 14:38 | 33.41272 | 130.67569 | 11659 ft | 389 kts | 132° |
| 2026-05-07 14:38 | 33.39587 | 130.70118 | 12415 ft | 392 kts | 133° |
| 2026-05-07 14:38 | 33.37875 | 130.72670 | 13185 ft | 395 kts | 133° |
| 2026-05-07 14:39 | 33.36127 | 130.75235 | 13900 ft | 398 kts | 134° |
| 2026-05-07 14:39 | 33.34359 | 130.77806 | 14528 ft | 402 kts | 134° |
| 2026-05-07 14:39 | 33.32613 | 130.80442 | 15148 ft | 409 kts | 128° |
| 2026-05-07 14:39 | 33.31486 | 130.83618 | 15711 ft | 425 kts | 105° |
| 2026-05-07 14:40 | 33.31309 | 130.87171 | 16293 ft | 435 kts | 86° |
| 2026-05-07 14:40 | 33.31795 | 130.90800 | 16570 ft | 450 kts | 79° |
| 2026-05-07 14:40 | 33.32532 | 130.94484 | 16813 ft | 461 kts | 77° |
| 2026-05-07 14:40 | 33.33370 | 130.98214 | 17194 ft | 467 kts | 76° |
| 2026-05-07 14:41 | 33.34244 | 131.01954 | 17809 ft | 465 kts | 76° |
| 2026-05-07 14:41 | 33.35111 | 131.05648 | 18749 ft | 456 kts | 76° |
| 2026-05-07 14:41 | 33.35956 | 131.09298 | 19415 ft | 455 kts | 76° |
| 2026-05-07 14:41 | 33.36791 | 131.12965 | 19897 ft | 459 kts | 76° |
| 2026-05-07 14:42 | 33.37621 | 131.16664 | 20335 ft | 462 kts | 76° |
| 2026-05-07 14:42 | 33.38447 | 131.20381 | 20858 ft | 464 kts | 76° |
| 2026-05-07 14:42 | 33.39279 | 131.24147 | 21266 ft | 470 kts | 76° |
| 2026-05-07 14:42 | 33.40116 | 131.27948 | 21685 ft | 473 kts | 76° |
| 2026-05-07 14:43 | 33.40958 | 131.31774 | 22139 ft | 476 kts | 76° |
| 2026-05-07 14:43 | 33.41801 | 131.35612 | 22572 ft | 479 kts | 76° |
| 2026-05-07 14:43 | 33.42653 | 131.39498 | 22867 ft | 485 kts | 76° |
| 2026-05-07 14:43 | 33.43513 | 131.43422 | 23288 ft | 488 kts | 76° |
| 2026-05-07 14:44 | 33.44363 | 131.47309 | 23697 ft | 489 kts | 76° |
| 2026-05-07 14:44 | 33.45228 | 131.51263 | 24040 ft | 492 kts | 76° |
| 2026-05-07 14:44 | 33.46095 | 131.55237 | 24365 ft | 494 kts | 76° |
| 2026-05-07 14:44 | 33.46967 | 131.59239 | 24638 ft | 498 kts | 76° |
| 2026-05-07 14:45 | 33.47844 | 131.63275 | 24899 ft | 501 kts | 76° |
| 2026-05-07 14:45 | 33.48723 | 131.67324 | 25231 ft | 503 kts | 76° |
| 2026-05-07 14:45 | 33.49603 | 131.71386 | 25569 ft | 504 kts | 76° |
| 2026-05-07 14:45 | 33.50484 | 131.75461 | 25907 ft | 506 kts | 76° |
| 2026-05-07 14:46 | 33.51367 | 131.79551 | 26196 ft | 509 kts | 76° |
| 2026-05-07 14:46 | 33.52253 | 131.83660 | 26500 ft | 510 kts | 76° |
| 2026-05-07 14:46 | 33.53140 | 131.87782 | 26809 ft | 512 kts | 76° |
| 2026-05-07 14:46 | 33.54031 | 131.91928 | 27104 ft | 514 kts | 76° |
| 2026-05-07 14:47 | 33.54921 | 131.96082 | 27394 ft | 516 kts | 76° |
| 2026-05-07 14:47 | 33.55813 | 132.00246 | 27673 ft | 517 kts | 76° |
| 2026-05-07 14:47 | 33.56704 | 132.04418 | 28033 ft | 517 kts | 76° |
| 2026-05-07 14:47 | 33.57596 | 132.08599 | 28302 ft | 519 kts | 76° |
| 2026-05-07 14:48 | 33.58493 | 132.12815 | 28531 ft | 521 kts | 76° |
| 2026-05-07 14:48 | 33.59389 | 132.17032 | 28768 ft | 523 kts | 76° |
| 2026-05-07 14:48 | 33.60277 | 132.21216 | 29019 ft | 524 kts | 76° |
| 2026-05-07 14:48 | 33.61173 | 132.25447 | 29365 ft | 523 kts | 76° |
| 2026-05-07 14:49 | 33.62066 | 132.29671 | 29759 ft | 522 kts | 76° |
| 2026-05-07 14:49 | 33.62955 | 132.33886 | 30152 ft | 520 kts | 76° |
| 2026-05-07 14:49 | 33.63838 | 132.38078 | 30502 ft | 519 kts | 76° |
| 2026-05-07 14:49 | 33.64724 | 132.42293 | 30799 ft | 519 kts | 76° |
| 2026-05-07 14:50 | 33.65609 | 132.46507 | 31114 ft | 519 kts | 76° |
| 2026-05-07 14:50 | 33.66189 | 132.49276 | 31330 ft | 519 kts | 76° |
| 2026-05-07 14:50 | 33.67347 | 132.54815 | 31820 ft | 517 kts | 76° |
| 2026-05-07 14:50 | 33.68219 | 132.58994 | 32196 ft | 516 kts | 76° |
| 2026-05-07 14:51 | 33.69091 | 132.63180 | 32554 ft | 516 kts | 76° |
| 2026-05-07 14:51 | 33.69666 | 132.65944 | 32800 ft | 516 kts | 76° |
| 2026-05-07 14:51 | 33.70826 | 132.71531 | 33294 ft | 515 kts | 76° |
| 2026-05-07 14:51 | 33.71399 | 132.74297 | 33547 ft | 514 kts | 76° |
| 2026-05-07 14:52 | 33.72272 | 132.78515 | 33884 ft | 513 kts | 75° |
| 2026-05-07 14:52 | 33.73131 | 132.82676 | 34187 ft | 513 kts | 76° |
| 2026-05-07 14:52 | 33.73977 | 132.86777 | 34458 ft | 513 kts | 75° |
| 2026-05-07 14:52 | 33.74834 | 132.90943 | 34699 ft | 513 kts | 75° |
| 2026-05-07 14:53 | 33.75689 | 132.95105 | 34970 ft | 513 kts | 75° |
| 2026-05-07 14:53 | 33.76543 | 132.99269 | 35222 ft | 513 kts | 75° |
| 2026-05-07 14:53 | 33.77398 | 133.03448 | 35426 ft | 514 kts | 75° |
| 2026-05-07 14:53 | 33.78249 | 133.07612 | 35726 ft | 512 kts | 75° |
| 2026-05-07 14:54 | 33.79110 | 133.11766 | 36037 ft | 510 kts | 73° |
| 2026-05-07 14:54 | 33.80143 | 133.15840 | 36293 ft | 510 kts | 70° |
| 2026-05-07 14:54 | 33.81316 | 133.19864 | 36518 ft | 510 kts | 69° |
| 2026-05-07 14:54 | 33.82536 | 133.23877 | 36735 ft | 510 kts | 68° |
| 2026-05-07 14:55 | 33.83743 | 133.27875 | 37079 ft | 508 kts | 69° |
| 2026-05-07 14:55 | 33.84923 | 133.31878 | 37283 ft | 508 kts | 69° |
| 2026-05-07 14:55 | 33.86083 | 133.35906 | 37455 ft | 509 kts | 69° |
| 2026-05-07 14:55 | 33.87234 | 133.39945 | 37649 ft | 509 kts | 70° |
| 2026-05-07 14:56 | 33.88368 | 133.43929 | 37827 ft | 509 kts | 69° |
| 2026-05-07 14:56 | 33.89516 | 133.47951 | 38111 ft | 507 kts | 69° |
| 2026-05-07 14:56 | 33.90665 | 133.51961 | 38338 ft | 506 kts | 69° |
| 2026-05-07 14:56 | 33.91816 | 133.55970 | 38466 ft | 507 kts | 69° |
| 2026-05-07 14:57 | 33.92968 | 133.59993 | 38593 ft | 508 kts | 69° |
| 2026-05-07 14:57 | 33.94116 | 133.64011 | 38727 ft | 508 kts | 69° |
| 2026-05-07 14:57 | 33.95263 | 133.68033 | 38945 ft | 505 kts | 69° |
| 2026-05-07 14:57 | 33.96402 | 133.72033 | 39092 ft | 505 kts | 69° |
| 2026-05-07 14:58 | 33.98689 | 133.80067 | 39245 ft | 508 kts | 69° |
| 2026-05-07 14:58 | 33.99839 | 133.84092 | 39364 ft | 508 kts | 69° |
| 2026-05-07 14:58 | 34.00988 | 133.88117 | 39520 ft | 507 kts | 69° |
| 2026-05-07 14:59 | 34.02131 | 133.92125 | 39644 ft | 507 kts | 69° |
| 2026-05-07 14:59 | 34.03281 | 133.96170 | 39715 ft | 508 kts | 70° |
| 2026-05-07 14:59 | 34.05074 | 134.04429 | 39913 ft | 509 kts | 77° |
| 2026-05-07 15:00 | 34.05792 | 134.08604 | 40057 ft | 508 kts | 78° |
| 2026-05-07 15:00 | 34.06503 | 134.12784 | 40128 ft | 509 kts | 77° |
| 2026-05-07 15:00 | 34.07991 | 134.21156 | 40141 ft | 510 kts | 77° |
| 2026-05-07 15:01 | 34.09524 | 134.29489 | 40124 ft | 509 kts | 77° |
| 2026-05-07 15:01 | 34.10276 | 134.33603 | 39969 ft | 511 kts | 77° |
| 2026-05-07 15:01 | 34.11055 | 134.37901 | 39608 ft | 519 kts | 77° |
| 2026-05-07 15:02 | 34.11818 | 134.42142 | 39859 ft | 514 kts | 77° |
| 2026-05-07 15:02 | 34.12561 | 134.46287 | 40084 ft | 510 kts | 77° |
| 2026-05-07 15:02 | 34.13318 | 134.50519 | 40283 ft | 508 kts | 77° |
| 2026-05-07 15:02 | 34.14052 | 134.54623 | 40428 ft | 507 kts | 77° |
| 2026-05-07 15:03 | 34.15539 | 134.62948 | 40569 ft | 508 kts | 77° |
| 2026-05-07 15:03 | 34.17023 | 134.71295 | 40769 ft | 508 kts | 77° |
| 2026-05-07 15:04 | 34.17763 | 134.75463 | 40874 ft | 508 kts | 77° |
| 2026-05-07 15:04 | 34.18603 | 134.79602 | 40905 ft | 508 kts | 74° |
| 2026-05-07 15:04 | 34.20611 | 134.87803 | 40919 ft | 509 kts | 72° |
| 2026-05-07 15:05 | 34.22707 | 134.95992 | 40922 ft | 510 kts | 72° |
| 2026-05-07 15:05 | 34.24751 | 135.04210 | 40918 ft | 510 kts | 73° |
| 2026-05-07 15:06 | 34.26749 | 135.12447 | 40911 ft | 510 kts | 73° |
| 2026-05-07 15:06 | 34.28726 | 135.20682 | 40914 ft | 509 kts | 73° |
| 2026-05-07 15:07 | 34.30695 | 135.28905 | 40911 ft | 509 kts | 73° |
| 2026-05-07 15:07 | 34.32659 | 135.37123 | 40904 ft | 508 kts | 73° |
| 2026-05-07 15:08 | 34.34603 | 135.45277 | 40911 ft | 507 kts | 73° |
| 2026-05-07 15:08 | 34.36548 | 135.53461 | 40917 ft | 506 kts | 73° |
| 2026-05-07 15:09 | 34.38488 | 135.61651 | 40928 ft | 506 kts | 74° |
| 2026-05-07 15:09 | 34.40419 | 135.69829 | 40928 ft | 505 kts | 74° |
| 2026-05-07 15:10 | 34.42340 | 135.78007 | 40943 ft | 504 kts | 74° |
| 2026-05-07 15:10 | 34.44259 | 135.86182 | 40936 ft | 504 kts | 74° |
| 2026-05-07 15:11 | 34.46160 | 135.94306 | 40925 ft | 504 kts | 74° |
| 2026-05-07 15:11 | 34.48065 | 136.02482 | 40940 ft | 504 kts | 74° |
| 2026-05-07 15:12 | 34.49966 | 136.10666 | 40922 ft | 504 kts | 74° |
| 2026-05-07 15:12 | 34.51858 | 136.18843 | 40916 ft | 503 kts | 75° |
| 2026-05-07 15:13 | 34.53745 | 136.27023 | 40925 ft | 503 kts | 75° |
| 2026-05-07 15:13 | 34.55625 | 136.35200 | 40921 ft | 503 kts | 75° |
| 2026-05-07 15:14 | 34.57498 | 136.43374 | 40922 ft | 503 kts | 75° |
| 2026-05-07 15:14 | 34.59366 | 136.51555 | 40910 ft | 503 kts | 75° |
| 2026-05-07 15:15 | 34.61232 | 136.59753 | 40916 ft | 503 kts | 75° |
| 2026-05-07 15:15 | 34.63090 | 136.67942 | 40912 ft | 503 kts | 75° |
| 2026-05-07 15:16 | 34.64944 | 136.76146 | 40910 ft | 504 kts | 75° |
| 2026-05-07 15:16 | 34.66782 | 136.84304 | 40914 ft | 504 kts | 75° |
| 2026-05-07 15:17 | 34.68627 | 136.92520 | 40909 ft | 504 kts | 75° |
| 2026-05-07 15:17 | 34.70469 | 137.00751 | 40917 ft | 504 kts | 76° |
| 2026-05-07 15:18 | 34.72300 | 137.08964 | 40903 ft | 503 kts | 75° |
| 2026-05-07 15:18 | 34.74125 | 137.17176 | 40913 ft | 503 kts | 76° |
| 2026-05-07 15:19 | 34.75942 | 137.25382 | 40918 ft | 502 kts | 76° |
| 2026-05-07 15:19 | 34.77752 | 137.33585 | 40920 ft | 502 kts | 76° |
| 2026-05-07 15:20 | 34.79568 | 137.41842 | 40926 ft | 502 kts | 76° |
| 2026-05-07 15:20 | 34.81356 | 137.50004 | 40925 ft | 502 kts | 76° |
| 2026-05-07 15:21 | 34.83151 | 137.58221 | 40932 ft | 502 kts | 76° |
| 2026-05-07 15:21 | 34.84940 | 137.66445 | 40935 ft | 502 kts | 76° |
| 2026-05-07 15:22 | 34.86723 | 137.74665 | 40930 ft | 502 kts | 76° |
| 2026-05-07 15:22 | 34.88498 | 137.82881 | 40943 ft | 502 kts | 76° |
| 2026-05-07 15:23 | 34.90266 | 137.91094 | 40935 ft | 501 kts | 76° |
| 2026-05-07 15:23 | 34.92030 | 137.99315 | 40941 ft | 501 kts | 77° |
| 2026-05-07 15:24 | 34.93787 | 138.07531 | 40933 ft | 500 kts | 77° |
| 2026-05-07 15:24 | 34.95538 | 138.15755 | 40512 ft | 507 kts | 77° |
| 2026-05-07 15:25 | 34.96412 | 138.19872 | 40584 ft | 496 kts | 77° |
| 2026-05-07 15:25 | 34.97274 | 138.23930 | 40732 ft | 492 kts | 77° |
| 2026-05-07 15:25 | 34.98135 | 138.27999 | 40370 ft | 501 kts | 77° |
| 2026-05-07 15:25 | 34.98995 | 138.32073 | 39856 ft | 502 kts | 77° |
| 2026-05-07 15:26 | 34.99866 | 138.36201 | 39194 ft | 501 kts | 77° |
| 2026-05-07 15:26 | 35.00732 | 138.40314 | 38524 ft | 501 kts | 77° |
| 2026-05-07 15:26 | 35.01598 | 138.44433 | 37707 ft | 502 kts | 77° |
| 2026-05-07 15:26 | 35.02464 | 138.48565 | 36934 ft | 502 kts | 77° |
| 2026-05-07 15:27 | 35.03327 | 138.52683 | 36184 ft | 502 kts | 77° |
| 2026-05-07 15:27 | 35.04190 | 138.56816 | 35382 ft | 504 kts | 77° |
| 2026-05-07 15:27 | 35.05058 | 138.60975 | 34507 ft | 508 kts | 77° |
| 2026-05-07 15:27 | 35.05930 | 138.65168 | 33547 ft | 512 kts | 77° |
| 2026-05-07 15:28 | 35.06810 | 138.69406 | 32519 ft | 517 kts | 77° |
| 2026-05-07 15:28 | 35.07696 | 138.73674 | 31503 ft | 519 kts | 77° |
| 2026-05-07 15:28 | 35.08583 | 138.77960 | 30419 ft | 522 kts | 77° |
| 2026-05-07 15:28 | 35.09473 | 138.82264 | 29284 ft | 524 kts | 77° |
| 2026-05-07 15:29 | 35.10361 | 138.86570 | 27975 ft | 525 kts | 77° |
| 2026-05-07 15:29 | 35.11253 | 138.90900 | 26702 ft | 526 kts | 77° |
| 2026-05-07 15:29 | 35.12146 | 138.95243 | 25494 ft | 526 kts | 77° |
| 2026-05-07 15:29 | 35.13029 | 138.99551 | 24688 ft | 519 kts | 77° |
| 2026-05-07 15:30 | 35.13905 | 139.03825 | 23715 ft | 516 kts | 77° |
| 2026-05-07 15:30 | 35.14766 | 139.08037 | 23021 ft | 505 kts | 77° |
| 2026-05-07 15:30 | 35.15606 | 139.12154 | 22300 ft | 495 kts | 77° |
| 2026-05-07 15:30 | 35.16431 | 139.16209 | 21460 ft | 487 kts | 77° |
| 2026-05-07 15:31 | 35.17237 | 139.20174 | 20506 ft | 476 kts | 77° |
| 2026-05-07 15:31 | 35.18029 | 139.24077 | 19403 ft | 470 kts | 77° |
| 2026-05-07 15:31 | 35.18809 | 139.27931 | 18343 ft | 465 kts | 77° |
| 2026-05-07 15:31 | 35.19578 | 139.31740 | 17245 ft | 458 kts | 77° |
| 2026-05-07 15:32 | 35.20333 | 139.35485 | 16196 ft | 450 kts | 77° |
| 2026-05-07 15:32 | 35.21076 | 139.39171 | 15191 ft | 443 kts | 77° |
| 2026-05-07 15:32 | 35.21795 | 139.42751 | 14216 ft | 437 kts | 77° |
| 2026-05-07 15:32 | 35.22523 | 139.46378 | 13190 ft | 431 kts | 77° |
| 2026-05-07 15:33 | 35.23233 | 139.49920 | 12210 ft | 424 kts | 77° |
| 2026-05-07 15:33 | 35.23693 | 139.52221 | 11642 ft | 419 kts | 77° |
| 2026-05-07 15:33 | 35.24377 | 139.55643 | 10936 ft | 409 kts | 78° |
| 2026-05-07 15:33 | 35.25033 | 139.58923 | 10730 ft | 387 kts | 78° |
| 2026-05-07 15:34 | 35.25658 | 139.62054 | 10568 ft | 372 kts | 78° |
| 2026-05-07 15:34 | 35.26259 | 139.65076 | 10404 ft | 360 kts | 78° |
| 2026-05-07 15:34 | 35.26844 | 139.68020 | 10266 ft | 351 kts | 78° |
| 2026-05-07 15:34 | 35.27408 | 139.70865 | 10089 ft | 336 kts | 78° |
| 2026-05-07 15:35 | 35.27946 | 139.73577 | 9943 ft | 321 kts | 78° |
| 2026-05-07 15:35 | 35.28462 | 139.76183 | 9719 ft | 311 kts | 78° |
| 2026-05-07 15:35 | 35.28973 | 139.78773 | 9366 ft | 306 kts | 78° |
| 2026-05-07 15:35 | 35.29469 | 139.81291 | 8855 ft | 306 kts | 78° |
| 2026-05-07 15:36 | 35.29962 | 139.83799 | 8295 ft | 308 kts | 78° |
| 2026-05-07 15:36 | 35.30461 | 139.86335 | 7826 ft | 306 kts | 78° |
| 2026-05-07 15:36 | 35.30956 | 139.88853 | 7368 ft | 303 kts | 78° |
| 2026-05-07 15:36 | 35.31446 | 139.91348 | 6934 ft | 300 kts | 78° |
| 2026-05-07 15:37 | 35.31932 | 139.93822 | 6485 ft | 298 kts | 78° |
| 2026-05-07 15:37 | 35.32413 | 139.96281 | 6012 ft | 297 kts | 78° |
| 2026-05-07 15:37 | 35.32892 | 139.98728 | 5597 ft | 293 kts | 78° |
| 2026-05-07 15:37 | 35.33364 | 140.01141 | 5197 ft | 290 kts | 77° |
| 2026-05-07 15:38 | 35.33833 | 140.03543 | 4653 ft | 292 kts | 77° |
| 2026-05-07 15:38 | 35.34303 | 140.05949 | 4220 ft | 289 kts | 77° |
| 2026-05-07 15:38 | 35.34767 | 140.08325 | 3859 ft | 284 kts | 77° |
| 2026-05-07 15:38 | 35.35225 | 140.10677 | 3506 ft | 280 kts | 77° |
| 2026-05-07 15:39 | 35.35664 | 140.12936 | 3378 ft | 267 kts | 77° |
| 2026-05-07 15:39 | 35.36177 | 140.15083 | 3117 ft | 260 kts | 62° |
| 2026-05-07 15:39 | 35.37343 | 140.16684 | 2960 ft | 247 kts | 27° |
| 2026-05-07 15:39 | 35.38881 | 140.17345 | 2862 ft | 225 kts | 358° |
| 2026-05-07 15:40 | 35.40338 | 140.17199 | 2800 ft | 198 kts | 336° |
| 2026-05-07 15:40 | 35.41540 | 140.16595 | 2721 ft | 180 kts | 319° |
| 2026-05-07 15:40 | 35.42472 | 140.15660 | 2730 ft | 168 kts | 306° |
| 2026-05-07 15:40 | 35.43283 | 140.14648 | 2710 ft | 168 kts | 307° |
| 2026-05-07 15:41 | 35.44099 | 140.13606 | 2675 ft | 169 kts | 307° |
| 2026-05-07 15:41 | 35.44910 | 140.12570 | 2619 ft | 167 kts | 307° |
| 2026-05-07 15:41 | 35.45716 | 140.11539 | 2566 ft | 168 kts | 308° |
| 2026-05-07 15:41 | 35.46524 | 140.10510 | 2533 ft | 165 kts | 307° |
| 2026-05-07 15:42 | 35.47304 | 140.09517 | 2468 ft | 158 kts | 306° |
| 2026-05-07 15:42 | 35.48050 | 140.08568 | 2413 ft | 151 kts | 306° |
| 2026-05-07 15:42 | 35.48778 | 140.07639 | 2383 ft | 152 kts | 306° |
| 2026-05-07 15:42 | 35.49513 | 140.06699 | 2344 ft | 153 kts | 307° |
| 2026-05-07 15:43 | 35.50247 | 140.05762 | 2300 ft | 151 kts | 307° |
| 2026-05-07 15:43 | 35.50973 | 140.04836 | 2263 ft | 149 kts | 307° |
| 2026-05-07 15:43 | 35.51696 | 140.03912 | 2211 ft | 151 kts | 307° |
| 2026-05-07 15:43 | 35.52431 | 140.02973 | 2178 ft | 153 kts | 306° |
| 2026-05-07 15:44 | 35.53176 | 140.02022 | 2123 ft | 154 kts | 306° |
| 2026-05-07 15:44 | 35.53914 | 140.01081 | 2067 ft | 153 kts | 306° |
| 2026-05-07 15:44 | 35.54649 | 140.00143 | 2030 ft | 152 kts | 306° |
| 2026-05-07 15:44 | 35.55379 | 139.99210 | 1966 ft | 153 kts | 306° |
| 2026-05-07 15:45 | 35.56103 | 139.98287 | 1870 ft | 147 kts | 307° |
| 2026-05-07 15:45 | 35.56811 | 139.97383 | 1798 ft | 147 kts | 308° |
| 2026-05-07 15:45 | 35.57515 | 139.96484 | 1775 ft | 146 kts | 309° |
| 2026-05-07 15:45 | 35.58208 | 139.95599 | 1779 ft | 145 kts | 309° |
| 2026-05-07 15:46 | 35.59601 | 139.93818 | 1780 ft | 144 kts | 309° |
| 2026-05-07 15:46 | 35.60298 | 139.92926 | 1778 ft | 146 kts | 309° |
| 2026-05-07 15:46 | 35.60904 | 139.91961 | 1751 ft | 140 kts | 282° |
| 2026-05-07 15:47 | 35.60701 | 139.90888 | 1860 ft | 136 kts | 238° |
| 2026-05-07 15:47 | 35.60291 | 139.89860 | 1782 ft | 130 kts | 244° |
| 2026-05-07 15:47 | 35.59743 | 139.88991 | 1638 ft | 127 kts | 229° |
| 2026-05-07 15:47 | 35.59149 | 139.88188 | 1457 ft | 126 kts | 226° |
| 2026-05-07 15:48 | 35.58522 | 139.87422 | 1293 ft | 128 kts | 225° |
| 2026-05-07 15:48 | 35.57880 | 139.86657 | 1119 ft | 129 kts | 225° |
| 2026-05-07 15:48 | 35.57236 | 139.85893 | 951 ft | 129 kts | 224° |
| 2026-05-07 15:48 | 35.56588 | 139.85125 | 776 ft | 130 kts | 223° |
| 2026-05-07 15:49 | 35.55938 | 139.84354 | 596 ft | 129 kts | 221° |
| 2026-05-07 15:49 | 35.55299 | 139.83596 | 422 ft | 128 kts | 220° |
| 2026-05-07 15:49 | 35.54647 | 139.82840 | 239 ft | 129 kts | 219° |
| 2026-05-07 15:49 | 35.53991 | 139.82129 | 45 ft | 126 kts | 218° |
| 2026-05-07 15:50 | 35.53400 | 139.81472 | 22 ft | 99 kts | 224° |
| 2026-05-07 15:50 | 35.52983 | 139.80999 | 22 ft | 64 kts | 222° |
| 2026-05-07 15:50 | 35.52795 | 139.80765 | 22 ft | 26 kts | 237° |
| 2026-05-07 15:50 | 35.52720 | 139.80576 | 22 ft | 24 kts | 251° |
| 2026-05-07 15:51 | 35.52697 | 139.80388 | 22 ft | 23 kts | 299° |
| 2026-05-07 15:51 | 35.52823 | 139.80362 | 23 ft | 22 kts | 44° |
| 2026-05-07 15:51 | 35.52933 | 139.80489 | 22 ft | 21 kts | 44° |
| 2026-05-07 15:51 | 35.53064 | 139.80481 | 23 ft | 21 kts | 330° |
| 2026-05-07 15:52 | 35.53186 | 139.80393 | 23 ft | 20 kts | 330° |
| 2026-05-07 15:52 | 35.53312 | 139.80304 | 24 ft | 21 kts | 330° |
| 2026-05-07 15:52 | 35.53320 | 139.80298 | 23 ft | 0 kts | 330° |
| 2026-05-07 15:53 | 35.53321 | 139.80298 | 23 ft | 0 kts | 330° |
| 2026-05-07 15:53 | 35.53372 | 139.80262 | 23 ft | 26 kts | 330° |
| 2026-05-07 15:53 | 35.53656 | 139.80058 | 24 ft | 67 kts | 329° |
| 2026-05-07 15:54 | 35.54183 | 139.79772 | 26 ft | 93 kts | 343° |
| 2026-05-07 15:54 | 35.54771 | 139.79561 | 25 ft | 85 kts | 329° |
| 2026-05-07 15:54 | 35.55253 | 139.79218 | 24 ft | 70 kts | 329° |
| 2026-05-07 15:54 | 35.55437 | 139.79009 | 23 ft | 27 kts | 251° |
| 2026-05-07 15:55 | 35.55297 | 139.78933 | 23 ft | 19 kts | 210° |
| 2026-05-07 15:55 | 35.55264 | 139.78866 | 23 ft | 0 kts | 241° |